createdAt,value
2016-07-17T00:00:26.502Z,-77
2016-07-17T00:01:26.501Z,-78
2016-07-17T00:02:26.482Z,-78
2016-07-17T00:03:26.491Z,-78
2016-07-17T00:04:26.475Z,-77
2016-07-17T00:05:26.562Z,-78
2016-07-17T00:06:26.404Z,-77
2016-07-17T00:07:26.650Z,-77
2016-07-17T00:08:26.561Z,-78
2016-07-17T00:09:26.573Z,-78
2016-07-17T00:10:26.557Z,-77
2016-07-17T00:11:26.440Z,-78
2016-07-17T00:12:26.589Z,-78
2016-07-17T00:13:26.509Z,-78
2016-07-17T00:14:26.511Z,-78
2016-07-17T00:15:26.504Z,-78
2016-07-17T00:16:26.520Z,-78
2016-07-17T00:17:26.580Z,-78
2016-07-17T00:18:26.513Z,-77
2016-07-17T00:19:26.636Z,-77
2016-07-17T00:20:26.458Z,-77
2016-07-17T00:21:26.463Z,-78
2016-07-17T00:22:26.541Z,-78
2016-07-17T00:23:26.534Z,-78
2016-07-17T00:24:26.773Z,-78
2016-07-17T00:25:26.518Z,-78
2016-07-17T00:26:26.559Z,-78
2016-07-17T00:27:26.611Z,-78
2016-07-17T00:28:26.623Z,-78
2016-07-17T00:29:26.671Z,-78
2016-07-17T00:30:26.594Z,-78
2016-07-17T00:31:26.732Z,-78
2016-07-17T00:32:26.609Z,-78
2016-07-17T00:33:26.546Z,-78
2016-07-17T00:34:26.702Z,-78
2016-07-17T00:35:26.615Z,-78
2016-07-17T00:36:26.485Z,-78
2016-07-17T00:37:26.615Z,-78
2016-07-17T00:38:26.653Z,-77
2016-07-17T00:39:26.573Z,-77
2016-07-17T00:40:26.575Z,-77
2016-07-17T00:41:26.640Z,-78
2016-07-17T00:42:26.655Z,-78
2016-07-17T00:43:26.581Z,-78
2016-07-17T00:44:26.692Z,-78
2016-07-17T00:45:26.613Z,-77
2016-07-17T00:46:26.598Z,-77
2016-07-17T00:47:26.663Z,-78
2016-07-17T00:48:26.762Z,-78
2016-07-17T00:49:26.666Z,-78
2016-07-17T00:50:26.522Z,-78
2016-07-17T00:51:26.635Z,-77
2016-07-17T00:52:26.779Z,-78
2016-07-17T00:53:26.686Z,-78
2016-07-17T00:54:26.719Z,-78
2016-07-17T00:55:26.623Z,-77
2016-07-17T00:56:26.782Z,-77
2016-07-17T00:57:26.646Z,-77
2016-07-17T00:58:26.567Z,-78
2016-07-17T00:59:26.698Z,-78
2016-07-17T01:00:26.695Z,-77
2016-07-17T01:01:26.561Z,-78
2016-07-17T01:02:26.576Z,-78
2016-07-17T01:03:26.706Z,-78
2016-07-17T01:04:26.723Z,-78
2016-07-17T01:05:26.650Z,-77
2016-07-17T01:06:26.722Z,-77
2016-07-17T01:07:26.718Z,-77
2016-07-17T01:08:26.656Z,-77
2016-07-17T01:09:26.798Z,-78
2016-07-17T01:10:26.659Z,-77
2016-07-17T01:11:26.668Z,-78
2016-07-17T01:12:26.645Z,-78
2016-07-17T01:13:26.880Z,-78
2016-07-17T01:14:26.661Z,-78
2016-07-17T01:15:26.731Z,-78
2016-07-17T01:16:26.677Z,-78
2016-07-17T01:17:26.784Z,-78
2016-07-17T01:18:26.600Z,-77
2016-07-17T01:19:26.608Z,-78
2016-07-17T01:20:26.728Z,-77
2016-07-17T01:21:26.763Z,-78
2016-07-17T01:22:26.835Z,-78
2016-07-17T01:23:26.615Z,-78
2016-07-17T01:24:26.760Z,-78
2016-07-17T01:25:26.785Z,-78
2016-07-17T01:26:26.838Z,-78
2016-07-17T01:27:26.813Z,-78
2016-07-17T01:28:26.727Z,-78
2016-07-17T01:29:26.701Z,-78
2016-07-17T01:30:26.843Z,-77
2016-07-17T01:31:26.704Z,-78
2016-07-17T01:32:26.785Z,-78
2016-07-17T01:33:26.643Z,-77
2016-07-17T01:34:26.804Z,-77
2016-07-17T01:35:26.726Z,-78
2016-07-17T01:36:26.809Z,-78
2016-07-17T01:37:26.897Z,-78
2016-07-17T01:38:26.744Z,-77
2016-07-17T01:39:26.667Z,-78
2016-07-17T01:40:26.813Z,-78
2016-07-17T01:41:26.818Z,-78
2016-07-17T01:42:26.811Z,-77
2016-07-17T01:43:26.829Z,-78
2016-07-17T01:44:26.762Z,-78
2016-07-17T01:45:27.021Z,-77
2016-07-17T01:46:26.792Z,-77
2016-07-17T01:47:26.771Z,-78
2016-07-17T01:48:26.822Z,-78
2016-07-17T01:49:26.844Z,-77
2016-07-17T01:50:26.869Z,-78
2016-07-17T01:51:26.917Z,-78
2016-07-17T01:52:26.789Z,-77
2016-07-17T01:53:26.863Z,-77
2016-07-17T01:54:26.934Z,-77
2016-07-17T01:55:26.783Z,-77
2016-07-17T01:56:26.779Z,-78
2016-07-17T01:57:26.870Z,-77
2016-07-17T01:58:26.871Z,-77
2016-07-17T01:59:26.795Z,-78
2016-07-17T02:00:26.958Z,-78
2016-07-17T02:01:26.878Z,-77
2016-07-17T02:02:26.958Z,-77
2016-07-17T02:03:26.982Z,-78
2016-07-17T02:04:26.826Z,-77
2016-07-17T02:05:27.499Z,-78
2016-07-17T02:06:26.816Z,-78
2016-07-17T02:07:26.923Z,-77
2016-07-17T02:08:26.818Z,-77
2016-07-17T02:09:26.907Z,-77
2016-07-17T02:10:26.755Z,-77
2016-07-17T02:11:26.892Z,-78
2016-07-17T02:12:26.837Z,-77
2016-07-17T02:13:26.909Z,-78
2016-07-17T02:14:26.908Z,-78
2016-07-17T02:15:26.829Z,-77
2016-07-17T02:16:26.881Z,-78
2016-07-17T02:17:26.858Z,-78
2016-07-17T02:18:27.005Z,-77
2016-07-17T02:19:26.857Z,-77
2016-07-17T02:20:26.810Z,-77
2016-07-17T02:21:26.862Z,-77
2016-07-17T02:22:26.786Z,-78
2016-07-17T02:23:26.950Z,-77
2016-07-17T02:24:26.891Z,-77
2016-07-17T02:25:26.892Z,-77
2016-07-17T02:26:27.006Z,-77
2016-07-17T02:27:26.978Z,-77
2016-07-17T02:28:26.969Z,-77
2016-07-17T02:29:26.976Z,-77
2016-07-17T02:30:26.964Z,-77
2016-07-17T02:31:26.812Z,-77
2016-07-17T02:32:26.946Z,-77
2016-07-17T02:33:27.033Z,-77
2016-07-17T02:34:26.916Z,-78
2016-07-17T02:35:26.970Z,-78
2016-07-17T02:36:27.041Z,-77
2016-07-17T02:37:26.899Z,-77
2016-07-17T02:38:27.074Z,-77
2016-07-17T02:39:27.016Z,-77
2016-07-17T02:40:26.928Z,-77
2016-07-17T02:41:26.918Z,-77
2016-07-17T02:42:26.927Z,-78
2016-07-17T02:43:26.933Z,-77
2016-07-17T02:44:26.878Z,-77
2016-07-17T02:45:26.867Z,-78
2016-07-17T02:46:26.911Z,-78
2016-07-17T02:47:27.026Z,-78
2016-07-17T02:48:26.930Z,-77
2016-07-17T02:49:26.937Z,-78
2016-07-17T02:50:26.944Z,-78
2016-07-17T02:51:27.037Z,-77
2016-07-17T02:52:26.856Z,-78
2016-07-17T02:53:27.094Z,-77
2016-07-17T02:54:27.023Z,-78
2016-07-17T02:55:26.978Z,-77
2016-07-17T02:56:27.040Z,-77
2016-07-17T02:57:26.955Z,-78
2016-07-17T02:58:27.065Z,-77
2016-07-17T02:59:26.964Z,-78
2016-07-17T03:00:27.108Z,-77
2016-07-17T03:01:26.895Z,-77
2016-07-17T03:02:27.091Z,-78
2016-07-17T03:03:27.144Z,-77
2016-07-17T03:04:27.057Z,-78
2016-07-17T03:05:27.053Z,-77
2016-07-17T03:06:27.079Z,-77
2016-07-17T03:07:26.994Z,-78
2016-07-17T03:08:27.135Z,-77
2016-07-17T03:09:26.986Z,-78
2016-07-17T03:10:27.066Z,-78
2016-07-17T03:11:26.935Z,-77
2016-07-17T03:12:26.929Z,-77
2016-07-17T03:13:27.108Z,-77
2016-07-17T03:14:27.021Z,-78
2016-07-17T03:15:27.120Z,-77
2016-07-17T03:16:27.098Z,-77
2016-07-17T03:17:27.182Z,-77
2016-07-17T03:18:27.317Z,-77
2016-07-17T03:19:27.035Z,-77
2016-07-17T03:20:27.057Z,-78
2016-07-17T03:21:27.022Z,-78
2016-07-17T03:22:27.180Z,-78
2016-07-17T03:23:27.100Z,-77
2016-07-17T03:24:27.072Z,-77
2016-07-17T03:25:27.037Z,-77
2016-07-17T03:26:26.988Z,-77
2016-07-17T03:27:27.142Z,-77
2016-07-17T03:28:27.131Z,-77
2016-07-17T03:29:27.116Z,-77
2016-07-17T03:30:27.074Z,-77
2016-07-17T03:31:27.044Z,-77
2016-07-17T03:32:27.100Z,-78
2016-07-17T03:33:27.142Z,-77
2016-07-17T03:34:27.208Z,-78
2016-07-17T03:35:27.213Z,-78
2016-07-17T03:36:27.011Z,-77
2016-07-17T03:37:27.148Z,-77
2016-07-17T03:38:27.101Z,-77
2016-07-17T03:39:27.299Z,-78
2016-07-17T03:40:27.165Z,-78
2016-07-17T03:41:27.102Z,-77
2016-07-17T03:42:27.088Z,-77
2016-07-17T03:43:27.093Z,-77
2016-07-17T03:44:27.102Z,-78
2016-07-17T03:45:27.127Z,-78
2016-07-17T03:46:27.189Z,-77
2016-07-17T03:47:27.195Z,-78
2016-07-17T03:48:27.196Z,-78
2016-07-17T03:49:27.170Z,-77
2016-07-17T03:50:27.084Z,-78
2016-07-17T03:51:27.136Z,-78
2016-07-17T03:52:27.050Z,-77
2016-07-17T03:53:27.073Z,-78
2016-07-17T03:54:27.207Z,-78
2016-07-17T03:55:27.230Z,-77
2016-07-17T03:56:27.061Z,-78
2016-07-17T03:57:27.212Z,-78
2016-07-17T03:58:27.248Z,-78
2016-07-17T03:59:27.211Z,-77
2016-07-17T04:00:27.150Z,-78
2016-07-17T04:01:27.403Z,-78
2016-07-17T04:02:27.288Z,-78
2016-07-17T04:03:27.236Z,-77
2016-07-17T04:04:27.083Z,-78
2016-07-17T04:05:27.243Z,-78
2016-07-17T04:06:27.076Z,-77
2016-07-17T04:07:27.260Z,-77
2016-07-17T04:08:27.174Z,-77
2016-07-17T04:09:27.098Z,-77
2016-07-17T04:10:27.166Z,-77
2016-07-17T04:11:27.083Z,-77
2016-07-17T04:12:27.517Z,-77
2016-07-17T04:13:27.284Z,-77
2016-07-17T04:14:27.252Z,-77
2016-07-17T04:15:27.186Z,-77
2016-07-17T04:16:27.243Z,-78
2016-07-17T04:17:27.101Z,-78
2016-07-17T04:18:27.196Z,-77
2016-07-17T04:19:27.332Z,-77
2016-07-17T04:20:27.290Z,-77
2016-07-17T04:21:27.221Z,-78
2016-07-17T04:22:27.364Z,-77
2016-07-17T04:23:27.272Z,-77
2016-07-17T04:24:27.305Z,-78
2016-07-17T04:25:27.340Z,-78
2016-07-17T04:26:27.303Z,-77
2016-07-17T04:27:27.233Z,-77
2016-07-17T04:28:27.302Z,-77
2016-07-17T04:29:27.293Z,-78
2016-07-17T04:30:27.164Z,-77
2016-07-17T04:31:27.296Z,-78
2016-07-17T04:32:27.327Z,-77
2016-07-17T04:33:33.033Z,-77
2016-07-17T04:34:27.247Z,-77
2016-07-17T04:35:27.287Z,-77
2016-07-17T04:36:27.329Z,-77
2016-07-17T04:37:27.315Z,-77
2016-07-17T04:38:27.188Z,-77
2016-07-17T04:39:27.256Z,-77
2016-07-17T04:40:27.335Z,-77
2016-07-17T04:41:27.257Z,-77
2016-07-17T04:42:27.357Z,-77
2016-07-17T04:43:27.349Z,-77
2016-07-17T04:44:27.284Z,-77
2016-07-17T04:45:27.371Z,-77
2016-07-17T04:46:27.244Z,-77
2016-07-17T04:47:27.398Z,-77
2016-07-17T04:48:27.364Z,-76
2016-07-17T04:49:27.361Z,-82
2016-07-17T04:50:27.389Z,-86
2016-07-17T04:51:27.290Z,-86
2016-07-17T04:52:27.294Z,-86
2016-07-17T04:53:27.300Z,-86
2016-07-17T04:54:27.409Z,-85
2016-07-17T04:55:27.262Z,-86
2016-07-17T04:56:27.453Z,-86
2016-07-17T04:57:27.462Z,-86
2016-07-17T04:58:27.408Z,-86
2016-07-17T04:59:27.400Z,-86
2016-07-17T05:00:27.307Z,-86
2016-07-17T05:01:27.325Z,-86
2016-07-17T05:02:27.402Z,-86
2016-07-17T05:03:27.483Z,-85
2016-07-17T05:04:27.383Z,-85
2016-07-17T05:05:27.370Z,-86
2016-07-17T05:06:27.406Z,-86
2016-07-17T05:07:27.417Z,-86
2016-07-17T05:08:27.365Z,-86
2016-07-17T05:09:27.425Z,-85
2016-07-17T05:10:27.271Z,-86
2016-07-17T05:11:27.428Z,-86
2016-07-17T05:12:27.464Z,-86
2016-07-17T05:13:27.553Z,-86
2016-07-17T05:14:27.302Z,-86
2016-07-17T05:15:27.362Z,-86
2016-07-17T05:16:27.361Z,-86
2016-07-17T05:17:27.444Z,-85
2016-07-17T05:18:27.288Z,-85
2016-07-17T05:19:27.603Z,-85
2016-07-17T05:20:27.394Z,-86
2016-07-17T05:21:27.314Z,-86
2016-07-17T05:22:27.451Z,-86
2016-07-17T05:23:27.449Z,-86
2016-07-17T05:24:27.390Z,-86
2016-07-17T05:25:27.493Z,-85
2016-07-17T05:26:27.584Z,-86
2016-07-17T05:27:27.324Z,-86
2016-07-17T05:28:27.482Z,-86
2016-07-17T05:29:27.413Z,-86
2016-07-17T05:30:27.527Z,-86
2016-07-17T05:31:27.478Z,-86
2016-07-17T05:32:27.638Z,-85
2016-07-17T05:44:18.749Z,-86
2016-07-17T05:44:25.636Z,-86
2016-07-17T05:45:25.741Z,-86
2016-07-17T05:46:25.797Z,-86
2016-07-17T05:47:25.791Z,-86
2016-07-17T05:48:25.567Z,-87
2016-07-17T05:49:25.728Z,-86
2016-07-17T05:50:25.651Z,-86
2016-07-17T05:51:25.622Z,-85
2016-07-17T05:52:25.724Z,-86
2016-07-17T05:53:25.770Z,-86
2016-07-17T05:54:25.591Z,-86
2016-07-17T05:55:25.820Z,-85
2016-07-17T05:56:25.682Z,-86
2016-07-17T05:57:25.686Z,-86
2016-07-17T05:58:25.654Z,-86
2016-07-17T05:59:25.604Z,-86
2016-07-17T06:00:25.842Z,-86
2016-07-17T06:01:25.691Z,-86
2016-07-17T06:02:25.676Z,-86
2016-07-17T06:03:25.839Z,-86
2016-07-17T06:04:25.764Z,-86
2016-07-17T06:05:25.697Z,-86
2016-07-17T06:06:25.706Z,-86
2016-07-17T06:07:25.996Z,-85
2016-07-17T06:08:25.778Z,-86
2016-07-17T06:09:25.720Z,-85
2016-07-17T06:10:25.913Z,-86
2016-07-17T06:11:25.732Z,-86
2016-07-17T06:12:25.837Z,-86
2016-07-17T06:13:25.725Z,-86
2016-07-17T06:14:25.809Z,-86
2016-07-17T06:15:25.812Z,-86
2016-07-17T06:16:25.801Z,-86
2016-07-17T06:17:25.898Z,-86
2016-07-17T06:18:25.804Z,-86
2016-07-17T06:19:25.809Z,-86
2016-07-17T06:20:25.675Z,-86
2016-07-17T06:21:25.812Z,-85
2016-07-17T06:22:25.735Z,-85
2016-07-17T06:23:25.796Z,-85
2016-07-17T06:24:25.768Z,-85
2016-07-17T06:25:25.777Z,-86
2016-07-17T06:26:25.827Z,-86
2016-07-17T06:27:25.770Z,-86
2016-07-17T06:28:25.911Z,-85
2016-07-17T06:29:25.995Z,-86
2016-07-17T06:30:25.838Z,-86
2016-07-17T06:31:25.842Z,-86
2016-07-17T06:32:25.836Z,-86
2016-07-17T06:33:25.783Z,-86
2016-07-17T06:34:25.878Z,-86
2016-07-17T06:35:25.878Z,-86
2016-07-17T06:36:25.861Z,-87
2016-07-17T06:37:25.854Z,-86
2016-07-17T06:38:25.819Z,-86
2016-07-17T06:39:25.896Z,-86
2016-07-17T06:40:25.885Z,-86
2016-07-17T06:41:25.941Z,-85
2016-07-17T06:42:25.878Z,-86
2016-07-17T06:43:25.756Z,-86
2016-07-17T06:44:25.799Z,-85
2016-07-17T06:45:25.896Z,-85
2016-07-17T06:46:25.890Z,-85
2016-07-17T06:47:25.987Z,-86
2016-07-17T06:48:25.817Z,-86
2016-07-17T06:49:25.989Z,-85
2016-07-17T06:50:25.906Z,-86
2016-07-17T06:51:25.745Z,-86
2016-07-17T06:52:25.829Z,-86
2016-07-17T06:53:25.923Z,-86
2016-07-17T06:54:25.864Z,-86
2016-07-17T06:55:25.929Z,-85
2016-07-17T06:56:25.917Z,-86
2016-07-17T06:57:25.835Z,-85
2016-07-17T06:58:25.842Z,-86
2016-07-17T06:59:25.858Z,-86
2016-07-17T07:00:25.945Z,-86
2016-07-17T07:01:25.859Z,-86
2016-07-17T07:02:26.016Z,-86
2016-07-17T07:03:25.936Z,-86
2016-07-17T07:04:25.790Z,-86
2016-07-17T07:05:25.966Z,-86
2016-07-17T07:06:25.887Z,-86
2016-07-17T07:07:25.950Z,-86
2016-07-17T07:08:25.954Z,-86
2016-07-17T07:09:26.719Z,-86
2016-07-17T07:10:26.124Z,-85
2016-07-17T07:11:26.241Z,-86
2016-07-17T07:12:25.997Z,-85
2016-07-17T07:13:25.825Z,-86
2016-07-17T07:14:25.894Z,-86
2016-07-17T07:15:25.926Z,-86
2016-07-17T07:16:25.981Z,-86
2016-07-17T07:17:25.900Z,-86
2016-07-17T07:18:25.955Z,-86
2016-07-17T07:19:25.981Z,-86
2016-07-17T07:20:26.004Z,-86
2016-07-17T07:21:25.996Z,-86
2016-07-17T07:22:26.044Z,-86
2016-07-17T07:23:25.905Z,-86
2016-07-17T07:24:25.848Z,-86
2016-07-17T07:25:25.872Z,-86
2016-07-17T07:26:26.178Z,-86
2016-07-17T07:27:26.045Z,-86
2016-07-17T07:28:25.925Z,-86
2016-07-17T07:29:25.961Z,-86
2016-07-17T07:30:26.084Z,-86
2016-07-17T07:31:26.678Z,-86
2016-07-17T07:32:25.969Z,-86
2016-07-17T07:33:25.959Z,-86
2016-07-17T07:34:26.126Z,-86
2016-07-17T07:35:26.027Z,-86
2016-07-17T07:36:26.033Z,-85
2016-07-17T07:37:25.887Z,-86
2016-07-17T07:38:26.404Z,-86
2016-07-17T07:39:26.048Z,-86
2016-07-17T07:40:26.040Z,-86
2016-07-17T07:41:26.191Z,-86
2016-07-17T07:42:26.252Z,-86
2016-07-17T07:43:26.064Z,-86
2016-07-17T07:44:26.060Z,-85
2016-07-17T07:45:26.908Z,-86
2016-07-17T07:46:26.167Z,-86
2016-07-17T07:47:26.000Z,-85
2016-07-17T07:48:26.098Z,-86
2016-07-17T07:49:25.943Z,-87
2016-07-17T07:50:26.128Z,-86
2016-07-17T07:51:26.061Z,-86
2016-07-17T07:52:26.452Z,-86
2016-07-17T07:53:26.086Z,-86
2016-07-17T07:54:26.074Z,-87
2016-07-17T07:55:26.007Z,-86
2016-07-17T07:56:26.060Z,-86
2016-07-17T07:57:26.000Z,-86
2016-07-17T07:58:26.106Z,-85
2016-07-17T07:59:26.102Z,-86
2016-07-17T08:00:26.178Z,-86
2016-07-17T08:01:26.034Z,-86
2016-07-17T08:02:26.101Z,-86
2016-07-17T08:03:26.122Z,-85
2016-07-17T08:04:26.122Z,-86
2016-07-17T08:05:26.124Z,-86
2016-07-17T08:06:26.071Z,-85
2016-07-17T08:07:26.028Z,-86
2016-07-17T08:08:25.997Z,-85
2016-07-17T08:09:26.167Z,-86
2016-07-17T08:10:26.147Z,-85
2016-07-17T08:11:26.099Z,-85
2016-07-17T08:12:26.250Z,-85
2016-07-17T08:13:26.022Z,-86
2016-07-17T08:14:26.028Z,-86
2016-07-17T08:15:26.323Z,-85
2016-07-17T08:16:26.074Z,-85
2016-07-17T08:17:26.033Z,-85
2016-07-17T08:18:26.230Z,-85
2016-07-17T08:19:26.188Z,-86
2016-07-17T08:20:26.139Z,-85
2016-07-17T08:21:26.240Z,-85
2016-07-17T08:22:26.217Z,-85
2016-07-17T08:23:26.262Z,-85
2016-07-17T08:24:26.183Z,-85
2016-07-17T08:25:26.019Z,-85
2016-07-17T08:26:26.203Z,-85
2016-07-17T08:27:26.144Z,-85
2016-07-17T08:28:26.218Z,-85
2016-07-17T08:29:26.166Z,-86
2016-07-17T08:30:26.276Z,-85
2016-07-17T08:31:26.838Z,-85
2016-07-17T08:32:26.038Z,-85
2016-07-17T08:33:26.245Z,-85
2016-07-17T08:34:26.384Z,-85
2016-07-17T08:35:26.280Z,-85
2016-07-17T08:36:26.053Z,-85
2016-07-17T08:37:26.226Z,-85
2016-07-17T08:38:26.319Z,-85
2016-07-17T08:39:26.257Z,-85
2016-07-17T08:40:26.153Z,-85
2016-07-17T08:41:26.212Z,-85
2016-07-17T08:42:26.310Z,-85
2016-07-17T08:43:26.226Z,-85
2016-07-17T08:44:26.163Z,-85
2016-07-17T08:45:26.278Z,-85
2016-07-17T08:46:26.253Z,-85
2016-07-17T08:47:26.090Z,-86
2016-07-17T08:48:26.233Z,-85
2016-07-17T08:49:26.093Z,-85
2016-07-17T08:50:26.262Z,-85
2016-07-17T08:51:26.376Z,-85
2016-07-17T08:52:26.122Z,-86
2016-07-17T08:53:26.289Z,-85
2016-07-17T08:54:26.118Z,-85
2016-07-17T08:55:26.505Z,-85
2016-07-17T08:56:26.292Z,-85
2016-07-17T08:57:26.227Z,-86
2016-07-17T08:58:26.209Z,-86
2016-07-17T08:59:26.295Z,-85
2016-07-17T09:01:01.138Z,-85
2016-07-17T09:01:26.231Z,-85
2016-07-17T09:02:26.826Z,-85
2016-07-17T09:03:26.254Z,-85
2016-07-17T09:04:26.147Z,-86
2016-07-17T09:05:26.348Z,-86
2016-07-17T09:17:17.940Z,-85
2016-07-17T09:17:24.909Z,-85
2016-07-17T09:18:24.987Z,-85
2016-07-17T09:19:24.834Z,-85
2016-07-17T09:20:24.774Z,-86
2016-07-17T09:21:24.908Z,-85
2016-07-17T09:22:24.998Z,-84
2016-07-17T09:23:24.965Z,-86
2016-07-17T09:24:24.936Z,-86
2016-07-17T09:25:25.013Z,-85
2016-07-17T09:26:24.958Z,-86
2016-07-17T09:27:24.846Z,-85
2016-07-17T09:28:24.850Z,-85
2016-07-17T09:29:24.958Z,-85
2016-07-17T09:30:24.962Z,-85
2016-07-17T09:31:24.909Z,-85
2016-07-17T09:32:24.912Z,-85
2016-07-17T09:33:24.919Z,-85
2016-07-17T09:34:24.976Z,-85
2016-07-17T09:35:24.880Z,-85
2016-07-17T09:36:24.871Z,-85
2016-07-17T09:37:24.878Z,-86
2016-07-17T09:38:25.031Z,-85
2016-07-17T09:39:24.995Z,-85
2016-07-17T09:40:25.066Z,-85
2016-07-17T09:41:24.974Z,-85
2016-07-17T09:42:24.989Z,-85
2016-07-17T09:43:24.900Z,-85
2016-07-17T09:44:25.053Z,-85
2016-07-17T09:45:25.032Z,-85
2016-07-17T09:46:24.933Z,-85
2016-07-17T09:47:24.841Z,-85
2016-07-17T09:48:24.843Z,-85
2016-07-17T09:49:24.916Z,-85
2016-07-17T09:50:25.018Z,-85
2016-07-17T09:51:25.009Z,-85
2016-07-17T09:52:25.030Z,-86
2016-07-17T09:53:24.943Z,-85
2016-07-17T09:54:24.933Z,-84
2016-07-17T09:55:25.281Z,-84
2016-07-17T09:56:25.015Z,-85
2016-07-17T09:57:24.988Z,-85
2016-07-17T09:58:24.972Z,-86
2016-07-17T09:59:25.020Z,-85
2016-07-17T10:00:25.026Z,-85
2016-07-17T10:01:24.964Z,-85
2016-07-17T10:02:24.970Z,-85
2016-07-17T10:03:25.005Z,-85
2016-07-17T10:04:25.032Z,-85
2016-07-17T10:05:25.051Z,-85
2016-07-17T10:06:25.117Z,-85
2016-07-17T10:07:25.065Z,-86
2016-07-17T10:08:24.969Z,-85
2016-07-17T10:09:24.961Z,-85
2016-07-17T10:10:25.125Z,-86
2016-07-17T10:11:25.062Z,-84
2016-07-17T10:12:25.056Z,-86
2016-07-17T10:13:25.395Z,-85
2016-07-17T10:14:25.026Z,-85
2016-07-17T10:15:25.191Z,-85
2016-07-17T10:16:24.997Z,-85
2016-07-17T10:17:25.030Z,-84
2016-07-17T10:18:25.032Z,-85
2016-07-17T10:19:25.067Z,-85
2016-07-17T10:20:25.083Z,-85
2016-07-17T10:21:25.057Z,-86
2016-07-17T10:22:25.099Z,-85
2016-07-17T10:23:25.208Z,-85
2016-07-17T10:24:25.053Z,-86
2016-07-17T10:25:24.947Z,-85
2016-07-17T10:26:25.111Z,-85
2016-07-17T10:27:25.090Z,-85
2016-07-17T10:28:25.196Z,-85
2016-07-17T10:29:25.053Z,-85
2016-07-17T10:30:25.010Z,-85
2016-07-17T10:31:25.183Z,-86
2016-07-17T10:32:25.212Z,-85
2016-07-17T10:33:25.003Z,-85
2016-07-17T10:34:25.260Z,-85
2016-07-17T10:35:25.070Z,-85
2016-07-17T10:36:25.091Z,-85
2016-07-17T10:37:25.216Z,-83
2016-07-17T10:38:25.225Z,-85
2016-07-17T10:39:25.198Z,-85
2016-07-17T10:40:25.174Z,-86
2016-07-17T10:41:25.179Z,-86
2016-07-17T10:42:25.164Z,-85
2016-07-17T10:43:25.208Z,-85
2016-07-17T10:44:25.244Z,-86
2016-07-17T10:45:25.139Z,-85
2016-07-17T10:46:25.098Z,-86
2016-07-17T10:47:25.341Z,-86
2016-07-17T10:48:25.022Z,-85
2016-07-17T10:49:25.273Z,-85
2016-07-17T10:50:25.095Z,-85
2016-07-17T10:51:25.073Z,-85
2016-07-17T10:52:25.109Z,-85
2016-07-17T10:53:25.138Z,-85
2016-07-17T10:54:25.123Z,-84
2016-07-17T10:55:25.277Z,-85
2016-07-17T10:56:25.333Z,-86
2016-07-17T10:57:25.154Z,-85
2016-07-17T10:58:25.171Z,-85
2016-07-17T10:59:25.195Z,-86
2016-07-17T11:00:25.492Z,-85
2016-07-17T11:01:25.187Z,-85
2016-07-17T11:02:25.245Z,-85
2016-07-17T11:03:25.369Z,-85
2016-07-17T11:04:25.316Z,-85
2016-07-17T11:05:25.224Z,-85
2016-07-17T11:06:25.241Z,-85
2016-07-17T11:07:25.300Z,-85
2016-07-17T11:08:25.338Z,-84
2016-07-17T11:09:25.290Z,-86
2016-07-17T11:10:25.104Z,-85
2016-07-17T11:11:25.110Z,-85
2016-07-17T11:12:25.101Z,-85
2016-07-17T11:13:25.195Z,-85
2016-07-17T11:14:25.192Z,-85
2016-07-17T11:15:25.386Z,-85
2016-07-17T11:16:25.326Z,-85
2016-07-17T11:17:25.366Z,-85
2016-07-17T11:18:25.127Z,-85
2016-07-17T11:19:25.205Z,-86
2016-07-17T11:20:25.275Z,-85
2016-07-17T11:21:26.786Z,-84
2016-07-17T11:22:25.284Z,-86
2016-07-17T11:23:25.283Z,-86
2016-07-17T11:24:25.216Z,-86
2016-07-17T11:25:25.429Z,-85
2016-07-17T11:26:25.298Z,-84
2016-07-17T11:27:25.346Z,-85
2016-07-17T11:28:25.234Z,-86
2016-07-17T11:29:25.263Z,-85
2016-07-17T11:30:25.158Z,-85
2016-07-17T11:31:25.194Z,-86
2016-07-17T11:32:25.327Z,-85
2016-07-17T11:33:25.405Z,-85
2016-07-17T11:34:25.471Z,-85
2016-07-17T11:35:25.328Z,-86
2016-07-17T11:36:25.423Z,-85
2016-07-17T11:37:25.321Z,-85
2016-07-17T11:38:25.247Z,-86
2016-07-17T11:39:25.244Z,-85
2016-07-17T11:40:25.353Z,-86
2016-07-17T11:41:25.454Z,-85
2016-07-17T11:42:25.276Z,-86
2016-07-17T11:43:25.199Z,-85
2016-07-17T11:44:25.270Z,-84
2016-07-17T11:45:25.364Z,-86
2016-07-17T11:46:25.369Z,-86
2016-07-17T11:47:25.422Z,-85
2016-07-17T11:48:25.327Z,-85
2016-07-17T11:49:25.283Z,-86
2016-07-17T11:50:25.276Z,-85
2016-07-17T11:51:25.361Z,-85
2016-07-17T11:52:25.208Z,-86
2016-07-17T11:53:25.316Z,-85
2016-07-17T11:54:25.397Z,-86
2016-07-17T11:55:25.239Z,-85
2016-07-17T11:56:25.349Z,-85
2016-07-17T11:57:25.307Z,-85
2016-07-17T11:58:25.559Z,-85
2016-07-17T11:59:25.450Z,-85
2016-07-17T12:00:25.582Z,-86
2016-07-17T12:01:25.423Z,-85
2016-07-17T12:02:25.395Z,-86
2016-07-17T12:03:25.392Z,-86
2016-07-17T12:04:25.255Z,-86
2016-07-17T12:05:25.446Z,-86
2016-07-17T12:06:25.361Z,-86
2016-07-17T12:07:25.401Z,-85
2016-07-17T12:08:25.463Z,-85
2016-07-17T12:09:25.408Z,-86
2016-07-17T12:10:25.504Z,-85
2016-07-17T12:11:25.347Z,-85
2016-07-17T12:12:25.366Z,-85
2016-07-17T12:13:25.324Z,-85
2016-07-17T12:14:25.558Z,-85
2016-07-17T12:15:25.364Z,-85
2016-07-17T12:16:25.424Z,-86
2016-07-17T12:17:25.311Z,-86
2016-07-17T12:18:25.439Z,-86
2016-07-17T12:19:25.432Z,-85
2016-07-17T12:20:25.382Z,-86
2016-07-17T12:21:25.473Z,-85
2016-07-17T12:22:25.436Z,-86
2016-07-17T12:23:25.473Z,-85
2016-07-17T12:24:25.405Z,-85
2016-07-17T12:25:25.405Z,-85
2016-07-17T12:26:25.539Z,-85
2016-07-17T12:27:25.377Z,-86
2016-07-17T12:28:25.400Z,-86
2016-07-17T12:29:25.498Z,-85
2016-07-17T12:30:25.304Z,-86
2016-07-17T12:31:25.457Z,-85
2016-07-17T12:32:25.476Z,-86
2016-07-17T12:33:25.321Z,-85
2016-07-17T12:34:25.413Z,-85
2016-07-17T12:35:25.397Z,-86
2016-07-17T12:36:25.415Z,-86
2016-07-17T12:37:25.534Z,-86
2016-07-17T12:38:25.401Z,-86
2016-07-17T12:39:25.327Z,-86
2016-07-17T12:40:25.556Z,-85
2016-07-17T12:41:25.417Z,-86
2016-07-17T12:42:25.635Z,-85
2016-07-17T12:43:25.349Z,-85
2016-07-17T12:44:25.536Z,-85
2016-07-17T12:45:25.440Z,-85
2016-07-17T12:46:25.456Z,-86
2016-07-17T12:47:25.436Z,-86
2016-07-17T12:48:25.522Z,-86
2016-07-17T12:49:25.390Z,-85
2016-07-17T12:50:25.446Z,-86
2016-07-17T12:51:25.396Z,-85
2016-07-17T12:52:25.635Z,-85
2016-07-17T12:53:25.470Z,-85
2016-07-17T12:54:25.456Z,-86
2016-07-17T12:55:25.743Z,-85
2016-07-17T12:56:25.405Z,-86
2016-07-17T12:57:25.497Z,-86
2016-07-17T12:58:25.599Z,-86
2016-07-17T12:59:25.590Z,-85
2016-07-17T13:00:25.540Z,-85
2016-07-17T13:01:25.557Z,-85
2016-07-17T13:02:25.574Z,-85
2016-07-17T13:03:25.413Z,-85
2016-07-17T13:04:25.646Z,-86
2016-07-17T13:05:25.481Z,-87
2016-07-17T13:06:25.649Z,-86
2016-07-17T13:07:25.497Z,-86
2016-07-17T13:08:25.660Z,-86
2016-07-17T13:09:25.585Z,-86
2016-07-17T13:10:25.438Z,-86
2016-07-17T13:11:25.612Z,-85
2016-07-17T13:12:25.719Z,-86
2016-07-17T13:13:25.609Z,-85
2016-07-17T13:14:25.637Z,-86
2016-07-17T13:15:25.530Z,-86
2016-07-17T13:16:25.533Z,-86
2016-07-17T13:17:25.591Z,-86
2016-07-17T13:18:25.496Z,-86
2016-07-17T13:19:25.684Z,-86
2016-07-17T13:20:25.627Z,-86
2016-07-17T13:21:25.605Z,-86
2016-07-17T13:22:25.625Z,-86
2016-07-17T13:23:25.529Z,-86
2016-07-17T13:24:25.668Z,-86
2016-07-17T13:25:25.705Z,-86
2016-07-17T13:26:25.667Z,-86
2016-07-17T13:27:25.547Z,-86
2016-07-17T13:28:25.688Z,-86
2016-07-17T13:29:25.813Z,-86
2016-07-17T13:30:25.691Z,-86
2016-07-17T13:31:25.731Z,-86
2016-07-17T13:32:25.657Z,-86
2016-07-17T13:33:25.561Z,-86
2016-07-17T13:34:25.576Z,-86
2016-07-17T13:35:25.745Z,-85
2016-07-17T13:36:25.710Z,-85
2016-07-17T13:37:25.521Z,-86
2016-07-17T13:38:25.554Z,-85
2016-07-17T13:39:25.592Z,-85
2016-07-17T13:40:25.579Z,-86
2016-07-17T13:41:25.605Z,-86
2016-07-17T13:42:25.676Z,-86
2016-07-17T13:43:25.676Z,-86
2016-07-17T13:44:25.633Z,-85
2016-07-17T13:45:25.789Z,-85
2016-07-17T13:46:25.626Z,-86
2016-07-17T13:47:25.712Z,-86
2016-07-17T13:48:26.224Z,-86
2016-07-17T13:49:25.623Z,-86
2016-07-17T13:50:25.701Z,-86
2016-07-17T13:51:25.626Z,-85
2016-07-17T13:52:25.797Z,-86
2016-07-17T13:53:25.837Z,-86
2016-07-17T13:54:25.725Z,-86
2016-07-17T13:55:25.651Z,-85
2016-07-17T13:56:25.644Z,-86
2016-07-17T13:57:25.655Z,-86
2016-07-17T13:58:25.658Z,-86
2016-07-17T13:59:25.679Z,-86
2016-07-17T14:00:25.751Z,-86
2016-07-17T14:01:25.590Z,-86
2016-07-17T14:02:25.790Z,-85
2016-07-17T14:03:25.823Z,-86
2016-07-17T14:04:25.854Z,-85
2016-07-17T14:05:25.876Z,-85
2016-07-17T14:06:25.669Z,-86